Trenton, NJ (08601)

07:17 EDT le 25 mai 2015 (GMT -0400)
Morris Heights | | Change Station
CLOSE
Current Station
Stations météorologiques personnelles
Location: Morrisville, PA
Altitude: 89 ft
Stations météo à proximité

Alt. 89 ft 40.22 °N, 74.78 °W | Updated 8 seconds ago

Nuageux
Nuageux
62.5 ° F
Paraît 62.5 ° F
N
2.7
Vent Variable Vent de SSO
Gusts 5.4 mph

Aujourd'hui
Haut(e) -- | Bas -- ° F
--% Risque de précip.
Hier
Haut(e) -- | Bas -- ° F
Precip. -- pouce
5:35 AM 8:16 PM
Lune montante, 48% visible
Pression 30.25 pouce
Visibilité 10.0 Miles terrestres
Nuages Nuageux 11000 ft
Point de rosée Non disponible.
Humidité Non disponible.
Précipitations 0.00 pouce
Profondeur de la couche neigeuse Non disponible.
UV 0 sur 12
Pollen 9.20 sur 12
Qualité de l'air Non disponible.
Flu Activity Sporadic
METAR KTTN 251053Z 17003KT 10SM BKN110 16/13 A3027 RMK AO2 SLP242 T01610128

More Conditions Fewer Conditions

Pression 30.25 pouce
Visibilité 10.0 Miles terrestres
Nuages Nuageux 11000 ft
Point de rosée Non disponible.
Humidité Non disponible.
Précipitations 0.00 pouce
Profondeur de la couche neigeuse Non disponible.
UV 0 sur 12
Pollen 9.20 sur 12
Qualité de l'air Non disponible.
Flu Activity Sporadic
METAR KTTN 251053Z 17003KT 10SM BKN110 16/13 A3027 RMK AO2 SLP242 T01610128

More Conditions Fewer Conditions

10-Day Weather Forecast

Almanac

Astronomie

May. 25, 2015 Lever Coucher
Temps réel
Crépuscule civil
Crépuscule nautique
Crépuscule astronomique
Lune
Durée de lumière visible
Longueur du jour
Tomorrow will be .
, % of the Moon is Illuminated

Extrêmes aujourd'hui

State Highs State Lows

Community

WunderPhotos

Upload Photos

1,823,980 Photos téléchargées !

WunderBlogs® & News

Nearby

Qualité de l'air

  Qualité de l'air Indice de la qualité de l'air Polluant
Not available.

Épaisseur de neige

Station Depth Altitude

Activité sismique

Ville Distance Mag. Time & Date
Minimum magnitude displayed is 2.5.

Températures des eaux côtières

Lieu Température

Stations

Stations météo à proximité

Emplacement de la station Température Refroidissement éolien Point de rosée Humidité Vent Precip. Alt. Mise à jour Type